Airfield :
LOGIN :

Register | Disclaimer

   EN    FR    IT 

 










Legend :    VFR   Marginal VFR   IFR   Intensive IFR   Very Intensive IFR
Visi :
Ceiling :
>= 8 km
>= 3000ft
5 to 8 km
1000 to 3000 ft
1500m to 5 km
500 to 1000 ft
800 to 1500m
200 to 500 ft
< 800m
< 200 ft
Symbols :   Thunderstorms  Fog  Heavy snow  Heavy precipitations  Wind > 20 kt
SIGMETs :     Misc.  Thunderstorms  Icing  Turbulence  Mountain Waves  Volcanic Ashes






- Airport Elevation : 538 ft
- IATA code : TNF


LFPN - Toussus Le Noble

CURRENT METAR :
  • 241030Z AUTO VRB02KT 1900 BR OVC004 M00/M01 Q1023 BECMG 6000 NSW SCT006

EXPIRED METARs :
  • 241000Z AUTO 13005KT 100V160 1600 1400 R25R/1800D BR OVC003 M01/M01 Q1023 TEMPO 4000 BR BKN006
  • 240930Z AUTO 13004KT 1300 R25R/1700N BR OVC003 M01/M02 Q1023 TEMPO BKN006 BECMG 6000 NSW
  • 240900Z AUTO 12004KT 080V150 1300 1200 R25R/1800D BR OVC003 M01/M02 Q1023 TEMPO SCT006 BECMG 6000 NSW
  • 240830Z AUTO VRB02KT 1700 BR OVC003 M01/M02 Q1023 TEMPO SCT006 BECMG 6000 NSW
  • 240800Z AUTO 10004KT 2000 BR OVC004 M01/M02 Q1023 BECMG 8000 NSW BKN006

TAF AMD TAF LFPN
Valid from the 24 at 09:00 until the 24 at 18:00 UTC


240944Z 2409/2418 03005KT 2000 BR BKN005
TEMPO 2409/2412 1200 BR BKN003
BECMG 2412/2414 6000 NSW SCT006
PROB30
TEMPO 2414/2418 4000 BR BKN006
ATIS : +33 1 39 56 54 70



MET'MAP, your aeronautical weather chart ! - Copyright ORBIFLY December 2007 - Disclaimer

ORBIFLY MET'MAP TEAM :

Programming & Development : Alexandra Zaïnal
Concept & original design : Baudouin d'Aumeries
Assistance for programming : Marc-Olivier Méhu
Technical & hardware support : Manuel Goepfert

Contact : metmap@orbifly.com




SOURCES & CREDITS :

   NOAA